Time;durP1;ratioP1;P1;durP2;ratioP2;P2;SDS_P1;SDS_P2;PMS_P1;PMS_P2;Temp;Humidity;BMP_temperature;BMP_pressure;BME280_temperature;BME280_humidity;BME280_pressure;Samples;Min_cycle;Max_cycle;Signal;HPM_P1;HPM_P2
2022/10/06 00:00:24;;;;;;;1.10;0.60;;;;;;;;;;5021705;28;20513;-95
2022/10/06 00:03:11;;;;;;;1.73;0.70;;;;;;;;;;5019100;28;20043;-91
2022/10/06 00:06:00;;;;;;;3.00;0.60;;;;;;;;;;5032127;28;20063;-91
2022/10/06 00:08:45;;;;;;;2.85;0.70;;;;;;;;;;5033731;28;20079;-92
2022/10/06 00:11:30;;;;;;;3.05;1.05;;;;;;;;;;5033950;28;20052;-91
2022/10/06 00:14:17;;;;;;;1.70;0.45;;;;;;;;;;5029922;28;20084;-92
2022/10/06 00:17:05;;;;;;;2.50;0.60;;;;;;;;;;5014123;28;20080;-93
2022/10/06 00:19:52;;;;;;;1.10;0.77;;;;;;;;;;5033130;28;20051;-94
2022/10/06 00:23:10;;;;;;;;;;;;;;;;;;;;;
2022/10/06 00:25:58;;;;;;;1.40;0.60;;;;;;;;;;5031950;28;20129;-92
2022/10/06 00:28:43;;;;;;;5.25;0.60;;;;;;;;;;5027142;28;20040;-94
2022/10/06 00:31:28;;;;;;;3.70;0.60;;;;;;;;;;5026681;28;20041;-94
2022/10/06 00:34:13;;;;;;;1.70;0.70;;;;;;;;;;5029945;28;20156;-93
2022/10/06 00:37:03;;;;;;;0.90;0.70;;;;;;;;;;5027201;28;20036;-94
2022/10/06 00:39:48;;;;;;;2.90;0.70;;;;;;;;;;5035105;28;20128;-94
2022/10/06 00:42:32;;;;;;;4.80;0.80;;;;;;;;;;5033372;28;20518;-91
2022/10/06 00:45:23;;;;;;;0.63;0.60;;;;;;;;;;5030780;28;20501;-91
2022/10/06 00:48:13;;;;;;;5.53;0.60;;;;;;;;;;5028160;28;20048;-92
2022/10/06 00:51:04;;;;;;;1.50;0.70;;;;;;;;;;5034852;28;20040;-93
2022/10/06 00:53:59;;;;;;;;;;;;;;;;;;;;;
2022/10/06 00:56:46;;;;;;;3.85;0.88;;;;;;;;;;5026211;28;20033;-94
2022/10/06 00:59:31;;;;;;;2.40;0.60;;;;;;;;;;5021207;28;20095;-95
2022/10/06 01:02:26;;;;;;;1.75;0.80;;;;;;;;;;5035197;28;20036;-94
2022/10/06 01:05:14;;;;;;;0.95;0.63;;;;;;;;;;5030796;28;20095;-92
2022/10/06 01:08:07;;;;;;;1.13;0.70;;;;;;;;;;5034574;28;20040;-92
2022/10/06 01:11:11;;;;;;;;;;;;;;;;;;;;;
2022/10/06 01:13:56;;;;;;;2.00;0.70;;;;;;;;;;5036285;28;20048;-95
2022/10/06 01:16:46;;;;;;;1.45;0.60;;;;;;;;;;5026014;28;20084;-93
2022/10/06 01:19:56;;;;;;;0.60;0.60;;;;;;;;;;5037458;28;20045;-93
2022/10/06 01:22:49;;;;;;;3.88;1.27;;;;;;;;;;5039758;28;20502;-94
2022/10/06 01:25:42;;;;;;;2.13;0.60;;;;;;;;;;5035622;28;20048;-95
2022/10/06 01:28:42;;;;;;;;;;;;;;;;;;;;;
2022/10/06 01:31:33;;;;;;;1.85;0.73;;;;;;;;;;5035012;28;20134;-95
2022/10/06 01:34:25;;;;;;;3.75;0.65;;;;;;;;;;5039429;28;20044;-93
2022/10/06 01:37:16;;;;;;;7.00;1.60;;;;;;;;;;5035379;28;20406;-94
2022/10/06 01:40:06;;;;;;;4.55;0.80;;;;;;;;;;5045483;28;20499;-95
2022/10/06 01:43:03;;;;;;;3.72;0.63;;;;;;;;;;5049812;28;20078;-93
2022/10/06 01:45:57;;;;;;;2.78;0.80;;;;;;;;;;5036978;28;20112;-94
2022/10/06 01:48:41;;;;;;;2.83;1.00;;;;;;;;;;5048649;28;20071;-95
2022/10/06 01:51:42;;;;;;;2.63;0.60;;;;;;;;;;5050969;28;20055;-94
2022/10/06 01:54:29;;;;;;;2.50;0.88;;;;;;;;;;5067960;28;20036;-96
2022/10/06 01:57:58;;;;;;;4.22;0.82;;;;;;;;;;5035734;28;20063;-93
2022/10/06 02:00:44;;;;;;;1.75;0.80;;;;;;;;;;5056333;28;20417;-94
2022/10/06 02:03:36;;;;;;;1.15;0.60;;;;;;;;;;5044284;28;20036;-95
2022/10/06 02:06:49;;;;;;;6.55;1.00;;;;;;;;;;5049191;28;20063;-94
2022/10/06 02:09:45;;;;;;;2.58;0.93;;;;;;;;;;5038560;28;20043;-95
2022/10/06 02:12:39;;;;;;;4.40;0.93;;;;;;;;;;5033767;28;20056;-95
2022/10/06 02:15:32;;;;;;;1.43;0.70;;;;;;;;;;5039080;28;20132;-95
2022/10/06 02:18:34;;;;;;;4.10;0.95;;;;;;;;;;5065561;28;20143;-94
2022/10/06 02:21:22;;;;;;;1.85;0.85;;;;;;;;;;5052108;28;20036;-94
2022/10/06 02:24:33;;;;;;;3.78;0.90;;;;;;;;;;5052600;28;20093;-94
2022/10/06 02:27:25;;;;;;;2.35;0.80;;;;;;;;;;5032869;28;20048;-93
2022/10/06 02:30:16;;;;;;;1.35;0.70;;;;;;;;;;5034819;28;20032;-93
2022/10/06 02:33:10;;;;;;;5.32;0.70;;;;;;;;;;5042360;28;20040;-94
2022/10/06 02:36:03;;;;;;;1.50;0.80;;;;;;;;;;5033053;23;20092;-95
2022/10/06 02:38:58;;;;;;;1.10;0.70;;;;;;;;;;5028537;28;20048;-95
2022/10/06 02:41:50;;;;;;;1.92;0.80;;;;;;;;;;5016996;28;20418;-94
2022/10/06 02:51:14;;;;;;;5.10;0.90;;;;;;;;;;5042550;28;20045;-95
2022/10/06 02:54:11;;;;;;;;;;;;;;;;;;;;;
2022/10/06 02:57:02;;;;;;;4.03;0.85;;;;;;;;;;5043802;28;20064;-95
2022/10/06 03:00:20;;;;;;;;;;;;;;;;;;;;;
2022/10/06 03:03:34;;;;;;;3.20;0.90;;;;;;;;;;5038695;28;20036;-94
2022/10/06 03:06:33;;;;;;;1.83;0.90;;;;;;;;;;5010539;28;20077;-96
2022/10/06 03:09:24;;;;;;;5.15;0.88;;;;;;;;;;5015906;28;20041;-92
2022/10/06 03:12:21;;;;;;;6.40;0.93;;;;;;;;;;4995191;28;20041;-96
2022/10/06 03:15:19;;;;;;;8.07;0.95;;;;;;;;;;5010706;28;20142;-94
2022/10/06 03:18:04;;;;;;;1.15;0.65;;;;;;;;;;5009918;28;20041;-93
2022/10/06 03:20:54;;;;;;;8.07;1.00;;;;;;;;;;5022466;28;20390;-93
2022/10/06 03:24:32;;;;;;;4.28;0.77;;;;;;;;;;4997764;28;20108;-96
2022/10/06 03:27:16;;;;;;;3.70;1.05;;;;;;;;;;4982673;28;20041;-95
2022/10/06 03:30:03;;;;;;;4.50;0.90;;;;;;;;;;4998508;28;20053;-95
2022/10/06 03:32:48;;;;;;;5.20;1.08;;;;;;;;;;5017903;28;20089;-93
2022/10/06 03:35:43;;;;;;;1.58;0.68;;;;;;;;;;5023080;28;20049;-95
2022/10/06 03:38:32;;;;;;;6.30;0.75;;;;;;;;;;5009789;28;20588;-94
2022/10/06 03:41:23;;;;;;;2.22;0.85;;;;;;;;;;5018888;28;20042;-95
2022/10/06 03:44:22;;;;;;;2.33;0.90;;;;;;;;;;4995289;28;20077;-94
2022/10/06 03:47:07;;;;;;;3.28;0.80;;;;;;;;;;5000717;28;20041;-95
2022/10/06 03:49:57;;;;;;;3.22;0.90;;;;;;;;;;5024417;28;20057;-95
2022/10/06 03:52:50;;;;;;;1.45;0.77;;;;;;;;;;5006903;28;20045;-94
2022/10/06 03:55:45;;;;;;;3.85;1.42;;;;;;;;;;5006542;28;20064;-93
2022/10/06 03:58:38;;;;;;;6.38;0.85;;;;;;;;;;5000401;28;20053;-96
2022/10/06 04:01:35;;;;;;;;;;;;;;;;;;;;;
2022/10/06 04:04:31;;;;;;;2.70;0.73;;;;;;;;;;4998759;28;20110;-92
2022/10/06 04:07:28;;;;;;;6.75;0.73;;;;;;;;;;5036748;28;20024;-95
2022/10/06 04:10:16;;;;;;;3.28;0.90;;;;;;;;;;4995000;28;20084;-94
2022/10/06 04:13:01;;;;;;;1.15;0.68;;;;;;;;;;5024071;28;20081;-95
2022/10/06 04:16:05;;;;;;;6.65;0.90;;;;;;;;;;5036370;28;20104;-95
2022/10/06 04:18:57;;;;;;;3.88;0.93;;;;;;;;;;5008719;28;20061;-95
2022/10/06 04:21:43;;;;;;;3.10;0.77;;;;;;;;;;5026346;28;20032;-94
2022/10/06 04:25:06;;;;;;;1.25;0.60;;;;;;;;;;5033658;28;20037;-95
2022/10/06 04:27:56;;;;;;;3.30;0.88;;;;;;;;;;5028157;28;20061;-96
2022/10/06 04:30:54;;;;;;;1.38;0.50;;;;;;;;;;5016549;28;20036;-94
2022/10/06 04:33:41;;;;;;;1.05;0.55;;;;;;;;;;5019321;28;20044;-95
2022/10/06 04:36:35;;;;;;;4.07;1.00;;;;;;;;;;5020988;28;20395;-95
2022/10/06 04:39:20;;;;;;;1.73;0.70;;;;;;;;;;5014657;28;20093;-95
2022/10/06 04:42:06;;;;;;;2.53;0.88;;;;;;;;;;5005255;28;20165;-96
2022/10/06 04:44:52;;;;;;;3.58;0.80;;;;;;;;;;5006185;28;20085;-93
2022/10/06 04:47:40;;;;;;;1.92;0.77;;;;;;;;;;4997093;28;20052;-93
2022/10/06 04:50:31;;;;;;;7.40;1.23;;;;;;;;;;4986460;28;20041;-95
2022/10/06 04:53:15;;;;;;;1.33;0.60;;;;;;;;;;5014726;28;20440;-95
2022/10/06 04:56:04;;;;;;;3.13;0.80;;;;;;;;;;5001087;28;20391;-94
2022/10/06 04:58:53;;;;;;;5.05;0.90;;;;;;;;;;4999838;28;20068;-94
2022/10/06 05:01:40;;;;;;;1.20;0.77;;;;;;;;;;5026128;28;20037;-95
2022/10/06 05:08:08;;;;;;;4.45;0.80;;;;;;;;;;5011829;28;20045;-94
2022/10/06 05:11:03;;;;;;;2.70;1.00;;;;;;;;;;5003538;28;20037;-95
2022/10/06 05:13:57;;;;;;;0.75;0.60;;;;;;;;;;4994487;28;20449;-94
2022/10/06 05:16:42;;;;;;;1.67;0.85;;;;;;;;;;5006008;28;20064;-94
2022/10/06 05:19:40;;;;;;;4.97;0.70;;;;;;;;;;5004944;28;20080;-95
2022/10/06 05:22:30;;;;;;;3.58;1.33;;;;;;;;;;4995794;28;20445;-93
2022/10/06 05:25:15;;;;;;;5.75;0.98;;;;;;;;;;5004308;28;20120;-93
2022/10/06 05:28:18;;;;;;;5.15;0.80;;;;;;;;;;5007910;28;20049;-95
2022/10/06 05:31:16;;;;;;;5.20;0.90;;;;;;;;;;5001440;28;20037;-95
2022/10/06 05:34:01;;;;;;;3.83;0.90;;;;;;;;;;5006432;28;20076;-94
2022/10/06 05:36:51;;;;;;;6.30;1.02;;;;;;;;;;5006658;28;20033;-95
2022/10/06 05:43:09;;;;;;;4.53;0.77;;;;;;;;;;4992262;28;20049;-94
2022/10/06 05:46:04;;;;;;;5.13;0.77;;;;;;;;;;5006014;28;20045;-94
2022/10/06 05:49:12;;;;;;;3.03;1.00;;;;;;;;;;5002866;28;20517;-95
2022/10/06 05:52:02;;;;;;;2.38;0.90;;;;;;;;;;4991590;28;20073;-95
2022/10/06 05:54:47;;;;;;;3.63;0.85;;;;;;;;;;4995112;28;20069;-91
2022/10/06 05:57:32;;;;;;;4.50;0.73;;;;;;;;;;5000711;28;20076;-95
2022/10/06 06:00:21;;;;;;;3.58;1.35;;;;;;;;;;5005997;28;20051;-94
2022/10/06 06:03:12;;;;;;;5.43;0.80;;;;;;;;;;5010971;28;20496;-94
2022/10/06 06:06:04;;;;;;;3.95;0.98;;;;;;;;;;5006067;28;20393;-93
2022/10/06 06:08:54;;;;;;;7.53;0.90;;;;;;;;;;4995723;28;20045;-93
2022/10/06 06:11:46;;;;;;;2.58;0.88;;;;;;;;;;5006481;28;20493;-94
2022/10/06 06:17:39;;;;;;;2.10;0.77;;;;;;;;;;5012775;28;20033;-94
2022/10/06 06:20:24;;;;;;;4.15;0.80;;;;;;;;;;5007722;28;20657;-93
2022/10/06 06:26:46;;;;;;;3.97;0.93;;;;;;;;;;5007879;28;20053;-95
2022/10/06 06:29:38;;;;;;;6.10;0.75;;;;;;;;;;4996645;28;20057;-94
2022/10/06 06:32:46;;;;;;;1.83;0.70;;;;;;;;;;4988320;28;20081;-95
2022/10/06 06:35:38;;;;;;;3.42;1.10;;;;;;;;;;5007914;28;20079;-93
2022/10/06 06:41:40;;;;;;;1.27;0.80;;;;;;;;;;5022529;28;20050;-95
2022/10/06 06:44:28;;;;;;;5.68;0.82;;;;;;;;;;5003846;28;20040;-94
2022/10/06 06:47:34;;;;;;;6.32;0.90;;;;;;;;;;5011768;28;20145;-95
2022/10/06 06:50:32;;;;;;;2.70;0.93;;;;;;;;;;5001930;28;20096;-94
2022/10/06 06:53:19;;;;;;;7.43;1.33;;;;;;;;;;5014179;28;20505;-94
2022/10/06 06:56:05;;;;;;;1.95;0.90;;;;;;;;;;4982172;28;20048;-95
2022/10/06 06:58:50;;;;;;;9.60;0.85;;;;;;;;;;5021812;28;20092;-96
2022/10/06 07:01:37;;;;;;;3.05;0.80;;;;;;;;;;5034386;28;20036;-95
2022/10/06 07:04:22;;;;;;;5.13;1.10;;;;;;;;;;5022561;28;20398;-95
2022/10/06 07:07:20;;;;;;;;;;;;;;;;;;;;;
2022/10/06 07:13:43;;;;;;;;;;;;;;;;;;;;;
2022/10/06 07:27:00;;;;;;;;;;;;;;;;;;;;;
2022/10/06 07:29:48;;;;;;;4.60;0.77;;;;;;;;;;5023480;28;20128;-94
2022/10/06 07:32:40;;;;;;;3.35;0.82;;;;;;;;;;5037139;28;20433;-95
2022/10/06 07:35:51;;;;;;;2.05;0.85;;;;;;;;;;5024726;28;20076;-96
2022/10/06 07:38:46;;;;;;;;;;;;;;;;;;;;;
2022/10/06 07:47:57;;;;;;;2.25;1.17;;;;;;;;;;5015645;28;20064;-94
2022/10/06 07:53:23;;;;;;;3.42;0.95;;;;;;;;;;5011101;28;20104;-93
2022/10/06 07:56:32;;;;;;;;;;;;;;;;;;;;;
2022/10/06 07:59:33;;;;;;;1.40;0.95;;;;;;;;;;5000960;28;20438;-93
2022/10/06 08:02:25;;;;;;;5.50;0.77;;;;;;;;;;5000682;28;20061;-92
2022/10/06 08:08:41;;;;;;;0.93;0.60;;;;;;;;;;5014850;28;20088;-93
2022/10/06 08:11:28;;;;;;;3.83;0.80;;;;;;;;;;4997626;28;20045;-91
2022/10/06 08:14:26;;;;;;;5.18;0.95;;;;;;;;;;5000421;28;20533;-93
2022/10/06 08:17:20;;;;;;;4.03;0.82;;;;;;;;;;5002468;28;20045;-92
2022/10/06 08:20:10;;;;;;;8.82;1.10;;;;;;;;;;4999328;28;20069;-93
2022/10/06 08:23:07;;;;;;;4.30;0.98;;;;;;;;;;4995979;28;20407;-91
2022/10/06 08:26:12;;;;;;;7.07;0.80;;;;;;;;;;5002906;28;20040;-93
2022/10/06 08:29:09;;;;;;;2.55;0.98;;;;;;;;;;5002998;28;20048;-92
2022/10/06 08:32:25;;;;;;;;;;;;;;;;;;;;;
2022/10/06 08:35:40;;;;;;;;;;;;;;;;;;;;;
2022/10/06 08:41:51;;;;;;;;;;;;;;;;;;;;;
2022/10/06 08:44:44;;;;;;;3.83;1.15;;;;;;;;;;5007060;28;20077;-93
2022/10/06 08:47:42;;;;;;;4.63;1.00;;;;;;;;;;4989310;28;20091;-93
2022/10/06 08:50:42;;;;;;;;;;;;;;;;;;;;;
2022/10/06 08:53:50;;;;;;;8.05;1.00;;;;;;;;;;5015769;28;20065;-92
2022/10/06 08:57:02;;;;;;;7.28;0.93;;;;;;;;;;4945247;29;20128;-92
2022/10/06 09:00:06;;;;;;;6.32;1.13;;;;;;;;;;4956245;28;20117;-92
2022/10/06 09:03:25;;;;;;;;;;;;;;;;;;;;;
2022/10/06 09:06:35;;;;;;;9.45;1.63;;;;;;;;;;4944014;29;19947;-92
2022/10/06 09:09:31;;;;;;;3.33;0.90;;;;;;;;;;4919706;29;20201;-92
2022/10/06 09:15:51;;;;;;;;;;;;;;;;;;;;;
2022/10/06 09:19:13;;;;;;;5.65;1.25;;;;;;;;;;5009069;28;20049;-92
2022/10/06 09:22:14;;;;;;;;;;;;;;;;;;;;;
2022/10/06 09:25:29;;;;;;;;;;;;;;;;;;;;;
2022/10/06 09:32:19;;;;;;;;;;;;;;;;;;;;;
2022/10/06 09:35:33;;;;;;;5.78;1.00;;;;;;;;;;4998900;28;20418;-91
2022/10/06 09:38:29;;;;;;;3.60;1.13;;;;;;;;;;4992475;28;20398;-90
2022/10/06 09:41:20;;;;;;;2.88;0.70;;;;;;;;;;4998547;28;20069;-89
2022/10/06 09:44:43;;;;;;;3.33;0.68;;;;;;;;;;5012192;28;20413;-92
2022/10/06 09:47:41;;;;;;;;;;;;;;;;;;;;;
2022/10/06 09:50:49;;;;;;;5.03;0.90;;;;;;;;;;4972395;28;20045;-92
2022/10/06 09:53:52;;;;;;;1.45;0.75;;;;;;;;;;4959531;28;20058;-90
2022/10/06 09:56:52;;;;;;;2.08;0.80;;;;;;;;;;4980116;28;20049;-93
2022/10/06 10:00:08;;;;;;;;;;;;;;;;;;;;;
2022/10/06 10:03:01;;;;;;;2.80;0.80;;;;;;;;;;5014226;28;20117;-92
2022/10/06 10:06:11;;;;;;;3.35;0.93;;;;;;;;;;5012695;28;20044;-93
2022/10/06 10:15:48;;;;;;;;;;;;;;;;;;;;;
2022/10/06 10:18:55;;;;;;;2.80;0.60;;;;;;;;;;4998335;28;20037;-91
2022/10/06 10:22:30;;;;;;;3.30;0.80;;;;;;;;;;4998968;28;20056;-92
2022/10/06 10:25:36;;;;;;;5.05;1.00;;;;;;;;;;5017232;28;20074;-92
2022/10/06 10:31:56;;;;;;;;;;;;;;;;;;;;;
2022/10/06 10:38:49;;;;;;;6.88;1.00;;;;;;;;;;5015193;28;20111;-91
2022/10/06 10:41:51;;;;;;;3.85;1.10;;;;;;;;;;4950327;29;20078;-92
2022/10/06 10:48:18;;;;;;;;;;;;;;;;;;;;;
2022/10/06 10:51:44;;;;;;;2.45;0.70;;;;;;;;;;5004174;28;20109;-91
2022/10/06 10:55:03;;;;;;;;;;;;;;;;;;;;;
2022/10/06 11:19:16;;;;;;;4.75;0.77;;;;;;;;;;4965223;29;20103;-90
2022/10/06 11:25:35;;;;;;;1.85;0.80;;;;;;;;;;4909067;29;20088;-93
2022/10/06 11:28:25;;;;;;;4.80;1.10;;;;;;;;;;4936554;29;20074;-92
2022/10/06 11:31:44;;;;;;;;;;;;;;;;;;;;;
2022/10/06 11:34:56;;;;;;;3.92;0.70;;;;;;;;;;4928523;29;20106;-92
2022/10/06 11:41:30;;;;;;;3.17;0.82;;;;;;;;;;4993332;28;20414;-92
2022/10/06 11:49:05;;;;;;;0.57;0.55;;;;;;;;;;4977337;28;20403;-94
2022/10/06 11:52:05;;;;;;;2.45;0.70;;;;;;;;;;4997964;28;20556;-93
2022/10/06 11:55:15;;;;;;;3.13;0.70;;;;;;;;;;4955105;28;20482;-94
2022/10/06 11:58:46;;;;;;;;;;;;;;;;;;;;;
2022/10/06 12:09:13;;;;;;;;;;;;;;;;;;;;;
2022/10/06 12:15:32;;;;;;;2.70;0.88;;;;;;;;;;4953679;28;20046;-94
2022/10/06 12:18:56;;;;;;;;;;;;;;;;;;;;;
2022/10/06 12:31:51;;;;;;;1.00;0.65;;;;;;;;;;4937060;29;20066;-93
2022/10/06 12:38:32;;;;;;;1.65;0.55;;;17.90;94.40;;;;;;4939818;29;20270;-95
2022/10/06 12:49:25;;;;;;;;;;;;;;;;;;;;;
2022/10/06 13:24:57;;;;;;;3.25;0.50;;;;;;;;;;6182248;22;1443772;-92
2022/10/06 13:28:18;;;;;;;4.50;1.05;;;;;;;;;;6198667;23;20019;-95
2022/10/06 13:31:29;;;;;;;;;;;;;;;;;;;;;
2022/10/06 13:37:44;;;;;;;3.88;0.82;;;;;;;;;;6202472;23;20097;-96
2022/10/06 13:55:06;;;;;;;;;;;;;;;;;;;;;
2022/10/06 13:58:00;;;;;;;10.65;2.60;;;;;;;;;;5910933;24;20032;-96
2022/10/06 14:04:49;;;;;;;;;;;;;;;;;;;;;
2022/10/06 14:07:55;;;;;;;2.17;0.73;;;;;;;;;;6036733;23;20402;-94
2022/10/06 14:21:44;;;;;;;;;;;;;;;;;;;;;
2022/10/06 14:24:52;;;;;;;8.48;2.17;;;;;;;;;;6164922;23;20092;-94
2022/10/06 14:28:03;;;;;;;3.60;1.27;;;;;;;;;;6127351;23;20023;-96
2022/10/06 14:30:56;;;;;;;2.97;1.08;;;;;;;;;;6174493;23;20024;-95
2022/10/06 14:34:14;;;;;;;;;;;;;;;;;;;;;
2022/10/06 14:37:02;;;;;;;9.65;2.15;;;;;;;;;;6039182;23;20143;-93
2022/10/06 14:40:03;;;;;;;3.53;1.25;;;;;;;;;;6023699;23;20016;-95
2022/10/06 15:00:32;;;;;;;3.22;1.10;;;;;;;;;;6034246;23;20018;-93
2022/10/06 15:03:51;;;;;;;3.95;1.10;;;;;;;;;;6047629;23;20018;-94
2022/10/06 15:10:37;;;;;;;1.10;0.77;;;;;;;;;;6054082;23;20036;-94
2022/10/06 15:13:43;;;;;;;6.45;1.00;;;;;;;;;;6077535;23;20069;-94
2022/10/06 15:16:42;;;;;;;1.83;1.05;;;;;;;;;;6075164;23;20053;-92
2022/10/06 15:34:00;;;;;;;;;;;;;;;;;;;;;
2022/10/06 15:36:55;;;;;;;3.33;1.08;;;;;;;;;;5957448;24;20016;-91
2022/10/06 15:43:08;;;;;;;5.80;0.95;;;;;;;;;;6003789;23;20022;-90
2022/10/06 15:46:04;;;;;;;1.98;0.93;;;;;;;;;;5990713;23;20038;-95
2022/10/06 15:49:41;;;;;;;;;;;;;;;;;;;;;
2022/10/06 15:56:48;;;;;;;13.10;2.35;;;;;;;;;;5871532;24;20025;-94
2022/10/06 16:00:05;;;;;;;5.03;1.25;;;;;;;;;;5864672;24;20021;-95
2022/10/06 16:06:38;;;;;;;;;;;;;;;;;;;;;
2022/10/06 16:09:43;;;;;;;1.65;0.88;;;;;;;;;;6009901;23;20041;-94
2022/10/06 16:16:04;;;;;;;7.38;1.35;;;;;;;;;;6011580;23;20397;-93
2022/10/06 16:19:18;;;;;;;3.42;0.88;;;;;;;;;;6017831;23;20148;-96
2022/10/06 16:25:34;;;;;;;15.95;3.30;;;;;;;;;;6067504;23;20025;-93
2022/10/06 16:28:21;;;;;;;4.72;0.65;;;;;;;;;;6076166;23;20456;-93
2022/10/06 16:31:09;;;;;;;2.28;0.90;;;;;;;;;;6074408;23;20021;-94
2022/10/06 16:37:41;;;;;;;4.07;0.90;;;;;;;;;;6153810;23;20024;-94
2022/10/06 16:40:47;;;;;;;4.82;1.42;;;;;;;;;;6018342;23;20017;-94
2022/10/06 16:43:54;;;;;;;3.83;0.93;;;;;;;;;;6017715;23;20018;-95
2022/10/06 16:50:18;;;;;;;2.22;0.90;;;;;;;;;;6129748;23;20059;-95
2022/10/06 16:53:08;;;;;;;2.67;1.10;;;;;;;;;;6149124;23;20016;-94
2022/10/06 16:55:53;;;;;;;4.07;0.93;;;;;;;;;;6190112;23;20063;-95
2022/10/06 16:58:52;;;;;;;2.78;1.00;;;;;;;;;;6166375;23;20067;-95
2022/10/06 17:01:56;;;;;;;;;;;;;;;;;;;;;
2022/10/06 17:04:46;;;;;;;2.83;0.70;;;;;;;;;;6187755;23;20087;-95
2022/10/06 17:11:27;;;;;;;;;;;;;;;;;;;;;
2022/10/06 17:14:54;;;;;;;;;;;;;;;;;;;;;
2022/10/06 17:17:55;;;;;;;6.10;1.25;;;;;;;;;;6187174;23;20596;-93
2022/10/06 17:20:57;;;;;;;3.35;1.33;;;;;;;;;;6146894;23;20149;-94
2022/10/06 17:23:48;;;;;;;2.88;1.17;;;;;;;;;;6161754;23;20012;-94
2022/10/06 17:26:51;;;;;;;6.07;1.10;;;;;;;;;;6165124;23;20024;-96
2022/10/06 17:44:18;;;;;;;;;;;;;;;;;;;;;
2022/10/06 17:47:38;;;;;;;;;;;;;;;;;;;;;
2022/10/06 17:50:26;;;;;;;4.00;0.95;;;;;;;;;;6097093;23;20495;-95
2022/10/06 19:54:52;;;;;;;2.97;1.00;;;;;;;;;;6215959;23;20031;-92
2022/10/06 20:01:35;;;;;;;;;;;;;;;;;;;;;
2022/10/06 20:14:50;;;;;;;5.68;1.00;;;;;;;;;;6211906;23;20413;-91
2022/10/06 20:21:09;;;;;;;4.22;0.88;;;;;;;;;;6215202;23;20019;-93
2022/10/06 20:24:21;;;;;;;2.95;1.17;;;;;;;;;;6192749;23;20498;-93
2022/10/06 20:30:34;;;;;;;2.43;1.20;;;;;;;;;;6216726;23;20371;-95
2022/10/06 20:33:25;;;;;;;1.23;0.80;;;;;;;;;;6193925;23;20027;-93
2022/10/06 20:36:42;;;;;;;1.08;0.90;;;;;;;;;;6193526;23;20118;-92
2022/10/06 20:43:40;;;;;;;;;;;;;;;;;;;;;
2022/10/06 20:46:36;;;;;;;0.98;0.80;;;;;;;;;;6217360;23;20100;-93
2022/10/06 21:03:35;;;;;;;2.22;0.85;;;;;;;;;;6094983;23;20021;-95
2022/10/06 21:20:19;;;;;;;3.80;1.65;;;;;;;;;;5981583;24;20046;-95
2022/10/06 21:34:04;;;;;;;1.92;0.90;;;;;;;;;;5888588;24;20109;-94
2022/10/06 21:50:18;;;;;;;4.40;1.10;;;;;;;;;;5959169;24;20060;-96
2022/10/06 22:03:33;;;;;;;2.45;1.02;;;;;;;;;;6087335;23;20421;-93
2022/10/06 22:06:51;;;;;;;;;;;;;;;;;;;;;
2022/10/06 22:16:49;;;;;;;;;;;;;;;;;;;;;
2022/10/06 22:23:28;;;;;;;1.58;0.82;;;;;;;;;;6097186;23;20034;-95
2022/10/06 22:29:51;;;;;;;2.92;1.00;;;;;;;;;;6099097;23;20516;-95
2022/10/06 22:33:24;;;;;;;;;;;;;;;;;;;;;
2022/10/06 22:40:08;;;;;;;;;;;;;;;;;;;;;
2022/10/06 22:43:10;;;;;;;1.20;0.85;;;;;;;;;;6188179;23;20059;-91
2022/10/06 22:45:57;;;;;;;1.00;0.60;;;;;;;;;;6188817;23;20037;-95
2022/10/06 22:52:23;;;;;;;;;;;;;;;;;;;;;
2022/10/06 22:56:10;;;;;;;6.05;1.38;;;;;;;;;;6185296;23;20107;-95
2022/10/06 22:59:02;;;;;;;;;;;;;;;;;;;;;
2022/10/06 23:02:14;;;;;;;4.53;0.90;;;;;;;;;;6184847;23;20072;-94
2022/10/06 23:05:27;;;;;;;5.53;1.10;;;;;;;;;;6186413;23;20019;-94
2022/10/06 23:11:53;;;;;;;2.40;1.25;;;;;;;;;;6198135;23;20020;-94
2022/10/06 23:14:58;;;;;;;3.55;0.80;;;;;;;;;;6175468;23;20020;-95
2022/10/06 23:18:11;;;;;;;4.90;1.17;;;;;;;;;;6198342;23;20059;-93
2022/10/06 23:21:26;;;;;;;1.52;0.68;;;;;;;;;;6196329;23;20011;-94
2022/10/06 23:28:09;;;;;;;;;;;;;;;;;;;;;
2022/10/06 23:35:01;;;;;;;;;;;;;;;;;;;;;
2022/10/06 23:45:11;;;;;;;3.35;1.10;;;;;;;;;;6200761;23;20027;-95
2022/10/06 23:52:00;;;;;;;;;;;;;;;;;;;;;
2022/10/06 23:55:17;;;;;;;2.28;0.80;;;;;;;;;;6218747;23;20470;-93
